createdAt,value
2019-01-18T00:02:03.079Z,0.50
2019-01-18T00:04:30.704Z,0.43
2019-01-18T00:06:57.289Z,0.40
2019-01-18T00:09:24.369Z,0.50
2019-01-18T00:11:51.481Z,0.60
2019-01-18T00:14:18.576Z,0.50
2019-01-18T00:16:45.652Z,0.60
2019-01-18T00:19:12.755Z,0.40
2019-01-18T00:21:39.841Z,0.60
2019-01-18T00:24:06.924Z,0.50
2019-01-18T00:26:34.008Z,0.87
2019-01-18T00:29:01.076Z,0.50
2019-01-18T00:31:28.208Z,0.50
2019-01-18T00:33:55.298Z,0.40
2019-01-18T00:36:22.408Z,0.60
2019-01-18T00:38:49.497Z,0.40
2019-01-18T00:41:16.608Z,0.40
2019-01-18T00:43:43.704Z,0.40
2019-01-18T00:46:10.811Z,0.67
2019-01-18T00:48:37.900Z,0.60
2019-01-18T00:51:05.022Z,0.40
2019-01-18T00:53:32.131Z,0.57
2019-01-18T00:55:59.221Z,0.50
2019-01-18T00:58:26.326Z,0.50
2019-01-18T01:00:53.426Z,0.57
2019-01-18T01:03:20.532Z,0.60
2019-01-18T01:05:47.633Z,0.60
2019-01-18T01:08:14.716Z,0.57
2019-01-18T01:10:41.824Z,0.40
2019-01-18T01:13:08.910Z,0.50
2019-01-18T01:15:36.659Z,0.40
2019-01-18T01:18:03.821Z,0.37
2019-01-18T01:20:30.899Z,0.40
2019-01-18T01:22:57.965Z,0.50
2019-01-18T01:25:25.053Z,0.57
2019-01-18T01:27:52.182Z,0.70
2019-01-18T01:30:21.380Z,0.37
2019-01-18T01:32:48.470Z,0.33
2019-01-18T01:35:15.662Z,0.40
2019-01-18T01:37:42.752Z,0.50
2019-01-18T01:40:12.287Z,0.50
2019-01-18T01:42:39.344Z,0.83
2019-01-18T01:45:06.888Z,0.40
2019-01-18T01:47:33.961Z,0.27
2019-01-18T01:50:01.718Z,0.30
2019-01-18T01:52:28.794Z,0.47
2019-01-18T01:54:56.701Z,0.40
2019-01-18T01:57:23.781Z,0.20
2019-01-18T01:59:50.882Z,0.30
2019-01-18T02:02:17.975Z,0.57
2019-01-18T02:04:45.081Z,0.30
2019-01-18T02:07:12.194Z,0.20
2019-01-18T02:09:39.293Z,0.30
2019-01-18T02:12:06.397Z,0.60
2019-01-18T02:14:33.517Z,0.40
2019-01-18T02:17:00.627Z,0.30
2019-01-18T02:19:27.749Z,0.40
2019-01-18T02:21:54.862Z,0.23
2019-01-18T02:24:21.988Z,0.20
2019-01-18T02:26:49.068Z,0.23
2019-01-18T02:29:16.182Z,0.47
2019-01-18T02:31:43.285Z,0.30
2019-01-18T02:34:10.391Z,0.33
2019-01-18T02:36:37.499Z,0.20
2019-01-18T02:39:05.488Z,0.40
2019-01-18T02:41:32.605Z,0.40
2019-01-18T02:43:59.692Z,0.40
2019-01-18T02:46:26.768Z,0.30
2019-01-18T02:48:53.877Z,0.27
2019-01-18T02:51:20.979Z,0.57
2019-01-18T02:53:48.082Z,0.20
2019-01-18T02:56:15.194Z,0.30
2019-01-18T02:58:42.287Z,0.40
2019-01-18T03:01:09.401Z,0.37
2019-01-18T03:03:36.481Z,0.30
2019-01-18T03:06:03.753Z,0.30
2019-01-18T03:08:30.828Z,0.40
2019-01-18T03:10:57.925Z,0.30
2019-01-18T03:13:25.086Z,0.40
2019-01-18T03:15:52.260Z,0.40
2019-01-18T03:18:19.390Z,0.83
2019-01-18T03:20:46.469Z,0.30
2019-01-18T03:23:13.562Z,0.80
2019-01-18T03:25:40.677Z,0.30
2019-01-18T03:28:07.776Z,0.40
2019-01-18T03:30:34.879Z,0.60
2019-01-18T03:33:01.961Z,0.20
2019-01-18T03:35:29.029Z,0.30
2019-01-18T03:37:56.136Z,0.20
2019-01-18T03:40:23.233Z,0.40
2019-01-18T03:42:50.618Z,0.30
2019-01-18T03:45:18.402Z,0.40
2019-01-18T03:47:45.490Z,0.30
2019-01-18T03:50:17.197Z,0.20
2019-01-18T03:52:44.286Z,0.47
2019-01-18T03:55:11.353Z,0.50
2019-01-18T03:57:38.417Z,0.30
2019-01-18T04:00:08.789Z,0.30
2019-01-18T04:02:35.889Z,0.17
2019-01-18T04:05:03.564Z,0.40
2019-01-18T04:07:30.689Z,0.47
2019-01-18T04:09:57.817Z,0.20
2019-01-18T04:12:24.889Z,0.27
2019-01-18T04:14:51.976Z,0.50
2019-01-18T04:17:19.136Z,0.33
2019-01-18T04:19:46.235Z,0.30
2019-01-18T04:22:13.348Z,0.30
2019-01-18T04:24:40.441Z,0.20
2019-01-18T04:27:07.531Z,0.20
2019-01-18T04:29:34.637Z,0.43
2019-01-18T04:32:01.721Z,0.40
2019-01-18T04:34:28.808Z,0.30
2019-01-18T04:36:55.880Z,0.30
2019-01-18T04:39:22.997Z,0.30
2019-01-18T04:41:50.096Z,0.37
2019-01-18T04:44:17.223Z,0.40
2019-01-18T04:46:44.308Z,0.30
2019-01-18T04:49:11.399Z,0.50
2019-01-18T04:51:38.509Z,0.50
2019-01-18T04:54:05.604Z,0.33
2019-01-18T04:56:32.726Z,0.40
2019-01-18T04:58:59.788Z,0.30
2019-01-18T05:01:26.873Z,0.47
2019-01-18T05:03:53.970Z,0.23
2019-01-18T05:06:21.084Z,0.27
2019-01-18T05:08:48.205Z,0.30
2019-01-18T05:11:15.296Z,0.37
2019-01-18T05:13:42.401Z,0.40
2019-01-18T05:16:09.494Z,0.20
2019-01-18T05:18:36.574Z,0.40
2019-01-18T05:21:03.679Z,0.30
2019-01-18T05:23:30.789Z,0.17
2019-01-18T05:25:57.863Z,0.40
2019-01-18T05:28:24.933Z,0.37
2019-01-18T05:30:52.017Z,0.20
2019-01-18T05:33:19.092Z,0.40
2019-01-18T05:35:46.181Z,0.53
2019-01-18T05:38:13.296Z,0.40
2019-01-18T05:40:40.380Z,0.30
2019-01-18T05:43:07.509Z,0.30
2019-01-18T05:45:34.592Z,0.40
2019-01-18T05:48:01.693Z,0.30
2019-01-18T05:50:29.260Z,0.40
2019-01-18T05:52:56.606Z,0.40
2019-01-18T05:55:23.721Z,0.73
2019-01-18T05:57:50.828Z,0.47
2019-01-18T06:00:24.941Z,0.50
2019-01-18T06:02:52.037Z,0.57
2019-01-18T06:05:19.148Z,0.63
2019-01-18T06:07:46.253Z,0.70
2019-01-18T06:10:13.605Z,0.50
2019-01-18T06:12:40.490Z,0.57
2019-01-18T06:15:07.597Z,0.30
2019-01-18T06:17:34.709Z,0.47
2019-01-18T06:20:01.844Z,0.50
2019-01-18T06:22:28.932Z,0.60
2019-01-18T06:24:56.081Z,0.60
2019-01-18T06:27:23.246Z,0.40
2019-01-18T06:29:50.265Z,0.40
2019-01-18T06:32:17.344Z,0.60
2019-01-18T06:34:44.433Z,0.77
2019-01-18T06:37:11.501Z,0.40
2019-01-18T06:39:38.600Z,0.40
2019-01-18T06:42:05.667Z,0.30
2019-01-18T06:44:32.753Z,0.50
2019-01-18T06:46:59.836Z,0.50
2019-01-18T06:49:26.960Z,0.50
2019-01-18T06:51:54.029Z,0.50
2019-01-18T06:54:21.102Z,0.37
2019-01-18T06:56:48.198Z,0.40
2019-01-18T06:59:15.302Z,0.50
2019-01-18T07:01:42.395Z,0.60
2019-01-18T07:04:09.485Z,0.60
2019-01-18T07:06:36.571Z,0.40
2019-01-18T07:09:07.077Z,0.40
2019-01-18T07:11:34.778Z,0.40
2019-01-18T07:14:01.320Z,0.73
2019-01-18T07:16:28.430Z,0.40
2019-01-18T07:18:55.521Z,0.47
2019-01-18T07:21:22.588Z,0.43
2019-01-18T07:23:49.903Z,0.60
2019-01-18T07:26:16.984Z,0.40
2019-01-18T07:28:44.058Z,0.47
2019-01-18T07:31:15.077Z,0.30
2019-01-18T07:33:38.235Z,0.30
2019-01-18T07:36:05.368Z,0.70
2019-01-18T07:38:32.445Z,0.40
2019-01-18T07:40:59.509Z,0.57
2019-01-18T07:43:26.644Z,0.40
2019-01-18T07:45:53.723Z,0.30
2019-01-18T07:48:20.845Z,0.40
2019-01-18T07:50:47.935Z,0.57
2019-01-18T07:53:16.343Z,0.53
2019-01-18T07:55:42.129Z,0.60
2019-01-18T07:58:09.205Z,0.43
2019-01-18T08:00:36.288Z,0.50
2019-01-18T08:03:03.408Z,0.23
2019-01-18T08:05:31.060Z,0.50
2019-01-18T08:07:58.160Z,0.30
2019-01-18T08:10:25.233Z,0.40
2019-01-18T08:12:52.340Z,0.43
2019-01-18T08:15:21.200Z,0.40
2019-01-18T08:17:48.415Z,0.63
2019-01-18T08:20:16.825Z,0.60
2019-01-18T08:22:43.896Z,0.80
2019-01-18T08:25:11.908Z,0.60
2019-01-18T08:27:38.996Z,0.40
2019-01-18T08:30:09.725Z,0.60
2019-01-18T08:32:36.791Z,0.40
2019-01-18T08:35:04.141Z,0.40
2019-01-18T08:37:31.223Z,0.60
2019-01-18T08:39:58.291Z,0.50
2019-01-18T08:42:25.375Z,0.50
2019-01-18T08:44:52.457Z,0.53
2019-01-18T08:47:19.541Z,0.60
2019-01-18T08:49:47.245Z,0.60
2019-01-18T08:52:14.339Z,0.50
2019-01-18T08:54:41.430Z,0.43
2019-01-18T08:57:08.506Z,0.40
2019-01-18T08:59:35.609Z,0.70
2019-01-18T09:02:02.701Z,0.40
2019-01-18T09:04:29.785Z,0.57
2019-01-18T09:06:56.852Z,0.50
2019-01-18T09:09:23.940Z,0.50
2019-01-18T09:11:51.013Z,0.50
2019-01-18T09:14:19.489Z,0.50
2019-01-18T09:16:45.235Z,0.60
2019-01-18T09:19:12.321Z,0.77
2019-01-18T09:21:39.493Z,0.47
2019-01-18T09:24:06.586Z,0.40
2019-01-18T09:26:33.667Z,0.40
2019-01-18T09:29:00.740Z,0.40
2019-01-18T09:31:27.829Z,0.40
2019-01-18T09:33:54.937Z,0.20
2019-01-18T09:36:22.026Z,0.40
2019-01-18T09:38:49.142Z,0.53
2019-01-18T09:41:16.254Z,0.60
2019-01-18T09:43:43.352Z,0.60
2019-01-18T09:46:10.443Z,0.73
2019-01-18T09:48:37.548Z,0.50
2019-01-18T09:51:04.654Z,0.50
2019-01-18T09:53:31.780Z,0.63
2019-01-18T09:55:58.865Z,0.73
2019-01-18T09:58:25.956Z,0.50
2019-01-18T10:00:53.085Z,0.40
2019-01-18T10:03:20.181Z,0.40
2019-01-18T10:05:47.283Z,0.60
2019-01-18T10:08:14.378Z,0.50
2019-01-18T10:10:41.501Z,0.40
2019-01-18T10:13:08.618Z,0.50
2019-01-18T10:15:38.343Z,0.40
2019-01-18T10:18:05.494Z,0.50
2019-01-18T10:20:32.578Z,0.47
2019-01-18T10:22:59.671Z,0.70
2019-01-18T10:25:26.768Z,0.50
2019-01-18T10:27:53.845Z,0.73
2019-01-18T10:30:22.008Z,0.60
2019-01-18T10:32:49.111Z,0.60
2019-01-18T10:35:16.851Z,0.70
2019-01-18T10:37:43.933Z,0.50
2019-01-18T10:40:11.041Z,0.63
2019-01-18T10:42:38.163Z,0.60
2019-01-18T10:45:05.513Z,0.60
2019-01-18T10:47:32.612Z,0.60
2019-01-18T10:49:59.712Z,0.60
2019-01-18T10:52:26.796Z,0.83
2019-01-18T10:54:53.876Z,0.80
2019-01-18T10:57:20.977Z,0.80
2019-01-18T10:59:48.065Z,0.50
2019-01-18T11:02:15.157Z,0.67
2019-01-18T11:04:42.274Z,0.53
2019-01-18T11:07:09.382Z,0.63
2019-01-18T11:09:36.477Z,0.80
2019-01-18T11:12:03.557Z,0.70
2019-01-18T11:14:30.661Z,0.53
2019-01-18T11:16:57.741Z,1.07
2019-01-18T11:19:24.814Z,0.77
2019-01-18T11:21:51.917Z,0.50
2019-01-18T11:24:18.998Z,0.90
2019-01-18T11:26:46.084Z,1.23
2019-01-18T11:29:13.229Z,0.70
2019-01-18T11:31:40.338Z,0.50
2019-01-18T11:34:07.436Z,0.60
2019-01-18T11:36:34.537Z,0.83
2019-01-18T11:39:01.688Z,0.70
2019-01-18T11:41:28.784Z,0.70
2019-01-18T11:43:55.896Z,0.93
2019-01-18T11:46:22.971Z,0.60
2019-01-18T11:48:50.467Z,0.60
2019-01-18T11:51:17.229Z,0.60
2019-01-18T11:53:44.317Z,0.60
2019-01-18T11:56:11.413Z,0.60
2019-01-18T11:58:38.514Z,0.80
2019-01-18T12:01:05.624Z,0.73
2019-01-18T12:03:32.729Z,0.90
2019-01-18T12:05:59.805Z,0.57
2019-01-18T12:08:26.902Z,0.80
2019-01-18T12:10:54.012Z,1.00
2019-01-18T12:13:21.105Z,0.90
2019-01-18T12:15:48.205Z,0.60
2019-01-18T12:18:15.326Z,1.00
2019-01-18T12:20:42.393Z,0.77
2019-01-18T12:23:09.482Z,0.67
2019-01-18T12:25:36.570Z,0.50
2019-01-18T12:28:04.501Z,0.80
2019-01-18T12:30:33.180Z,0.57
2019-01-18T12:33:00.269Z,0.80
2019-01-18T12:35:27.363Z,0.80
2019-01-18T12:37:54.440Z,0.80
2019-01-18T12:40:21.529Z,0.97
2019-01-18T12:42:48.612Z,0.70
2019-01-18T12:45:17.272Z,0.73
2019-01-18T12:47:44.359Z,0.80
2019-01-18T12:50:15.562Z,0.70
2019-01-18T12:52:42.639Z,0.80
2019-01-18T12:55:09.745Z,0.77
2019-01-18T12:57:36.817Z,0.60
2019-01-18T13:00:06.068Z,0.60
2019-01-18T13:02:35.471Z,0.50
2019-01-18T13:05:00.279Z,0.60
2019-01-18T13:07:27.345Z,0.80
2019-01-18T13:09:54.428Z,0.77
2019-01-18T13:12:21.522Z,0.80
2019-01-18T13:14:48.612Z,0.70
2019-01-18T13:17:15.704Z,0.70
2019-01-18T13:19:42.796Z,0.80
2019-01-18T13:22:09.874Z,0.83
2019-01-18T13:24:36.985Z,0.60
2019-01-18T13:27:04.092Z,0.90
2019-01-18T13:29:31.178Z,0.50
2019-01-18T13:31:58.298Z,0.53
2019-01-18T13:34:25.377Z,0.77
2019-01-18T13:36:52.504Z,0.90
2019-01-18T13:39:19.637Z,0.80
2019-01-18T13:41:47.310Z,0.67
2019-01-18T13:44:14.398Z,0.70
2019-01-18T13:46:41.465Z,0.57
2019-01-18T13:49:08.546Z,0.80
2019-01-18T13:51:36.612Z,0.63
2019-01-18T13:54:03.909Z,0.80
2019-01-18T13:56:31.020Z,0.83
2019-01-18T13:58:58.091Z,0.70
2019-01-18T14:01:25.188Z,0.80
2019-01-18T14:03:52.268Z,0.93
2019-01-18T14:06:19.353Z,0.77
2019-01-18T14:08:46.449Z,0.70
2019-01-18T14:11:15.132Z,0.90
2019-01-18T14:13:42.230Z,0.90
2019-01-18T14:16:09.296Z,0.63
2019-01-18T14:18:36.376Z,0.57
2019-01-18T14:21:03.485Z,0.90
2019-01-18T14:23:30.598Z,0.87
2019-01-18T14:25:57.676Z,0.70
2019-01-18T14:28:24.773Z,0.67
2019-01-18T14:30:51.896Z,0.80
2019-01-18T14:33:18.968Z,0.70
2019-01-18T14:35:46.059Z,0.90
2019-01-18T14:38:13.145Z,0.50
2019-01-18T14:40:40.251Z,1.00
2019-01-18T14:43:07.330Z,0.70
2019-01-18T14:45:36.760Z,0.70
2019-01-18T14:48:04.498Z,0.87
2019-01-18T14:50:31.588Z,0.77
2019-01-18T14:52:58.689Z,0.83
2019-01-18T14:55:25.777Z,0.67
2019-01-18T14:57:52.889Z,1.03
2019-01-18T15:00:24.097Z,1.10
2019-01-18T15:02:51.196Z,0.70
2019-01-18T15:05:18.320Z,0.87
2019-01-18T15:07:45.442Z,0.80
2019-01-18T15:10:15.735Z,1.00
2019-01-18T15:12:42.832Z,0.70
2019-01-18T15:15:11.982Z,1.10
2019-01-18T15:17:39.085Z,1.00
2019-01-18T15:20:11.317Z,0.80
2019-01-18T15:22:38.381Z,0.90
2019-01-18T15:25:06.100Z,0.90
2019-01-18T15:27:33.168Z,0.67
2019-01-18T15:30:00.283Z,0.90
2019-01-18T15:32:27.381Z,1.17
2019-01-18T15:34:54.514Z,1.17
2019-01-18T15:37:21.602Z,0.90
2019-01-18T15:39:48.690Z,1.10
2019-01-18T15:42:15.764Z,0.90
2019-01-18T15:44:42.878Z,1.03
2019-01-18T15:47:09.964Z,0.93
2019-01-18T15:49:37.059Z,0.77
2019-01-18T15:52:04.176Z,1.00
2019-01-18T15:54:31.279Z,1.10
2019-01-18T15:56:58.384Z,1.10
2019-01-18T15:59:25.492Z,0.87
2019-01-18T16:01:52.610Z,1.23
2019-01-18T16:04:19.733Z,0.73
2019-01-18T16:06:46.825Z,0.80
2019-01-18T16:09:13.908Z,1.13
2019-01-18T16:11:40.997Z,1.37
2019-01-18T16:14:08.076Z,1.20
2019-01-18T16:16:45.884Z,1.23
2019-01-18T16:19:12.964Z,0.80
2019-01-18T16:21:40.046Z,1.07
2019-01-18T16:24:07.125Z,1.40
2019-01-18T16:26:34.221Z,1.00
2019-01-18T16:29:01.346Z,1.20
2019-01-18T16:31:28.781Z,1.20
2019-01-18T16:33:55.869Z,1.30
2019-01-18T16:36:22.961Z,1.10
2019-01-18T16:38:50.045Z,1.27
2019-01-18T16:41:17.763Z,1.03
2019-01-18T16:43:45.240Z,1.57
2019-01-18T16:46:12.324Z,1.17
2019-01-18T16:48:39.426Z,0.90
2019-01-18T16:51:06.554Z,1.10
2019-01-18T16:53:33.610Z,1.10
2019-01-18T16:56:01.221Z,1.03
2019-01-18T16:58:28.293Z,1.50
2019-01-18T17:00:56.765Z,1.00
2019-01-18T17:03:29.976Z,1.10
2019-01-18T17:05:50.956Z,1.30
2019-01-18T17:08:18.060Z,1.37
2019-01-18T17:10:45.136Z,1.40
2019-01-18T17:13:12.237Z,1.30
2019-01-18T17:15:39.342Z,1.37
2019-01-18T17:18:06.455Z,1.13
2019-01-18T17:20:36.029Z,0.90
2019-01-18T17:23:03.189Z,1.30
2019-01-18T17:25:30.300Z,1.60
2019-01-18T17:27:57.397Z,1.27
2019-01-18T17:30:24.491Z,1.40
2019-01-18T17:32:51.610Z,1.53
2019-01-18T17:35:22.315Z,1.40
2019-01-18T17:37:54.171Z,1.17
2019-01-18T17:40:27.515Z,1.10
2019-01-18T17:43:01.887Z,1.50
2019-01-18T17:46:12.327Z,1.50
2019-01-18T17:48:49.761Z,1.30
2019-01-18T17:51:25.305Z,1.17
2019-01-18T17:53:58.476Z,1.77
2019-01-18T17:58:37.864Z,1.10
2019-01-18T18:01:20.989Z,1.23
2019-01-18T18:04:05.165Z,1.10
2019-01-18T18:06:43.276Z,1.60
2019-01-18T18:09:15.420Z,1.33
2019-01-18T18:13:54.004Z,1.57
2019-01-18T18:16:31.177Z,1.33
2019-01-18T18:19:10.332Z,1.23
2019-01-18T18:23:54.880Z,1.20
2019-01-18T18:26:32.996Z,1.37
2019-01-18T18:29:26.861Z,1.17
2019-01-18T18:32:03.457Z,1.50
2019-01-18T18:36:56.567Z,1.60
2019-01-18T18:39:41.821Z,1.60
2019-01-18T18:42:19.973Z,1.70
2019-01-18T18:45:02.552Z,1.37
2019-01-18T18:47:40.581Z,1.27
2019-01-18T18:50:19.016Z,1.80
2019-01-18T18:52:55.435Z,1.33
2019-01-18T18:55:34.856Z,1.17
2019-01-18T18:58:15.618Z,1.47
2019-01-18T19:00:58.093Z,1.40
2019-01-18T19:03:57.408Z,1.73
2019-01-18T19:06:33.183Z,1.33
2019-01-18T19:09:15.724Z,1.53
2019-01-18T19:11:54.990Z,1.50
2019-01-18T19:14:34.981Z,1.73
2019-01-18T19:17:10.075Z,1.47
2019-01-18T19:21:49.772Z,1.70
2019-01-18T19:24:30.052Z,1.40
2019-01-18T19:27:08.809Z,1.87
2019-01-18T19:29:45.449Z,1.40
2019-01-18T19:32:39.442Z,1.97
2019-01-18T19:35:25.689Z,1.60
2019-01-18T19:39:10.064Z,1.30
2019-01-18T19:43:52.640Z,1.33
2019-01-18T19:46:38.860Z,1.70
2019-01-18T19:49:35.930Z,1.40
2019-01-18T19:52:14.203Z,1.40
2019-01-18T19:54:50.272Z,1.43
2019-01-18T19:57:31.317Z,1.53
2019-01-18T20:00:17.952Z,2.00
2019-01-18T20:03:09.456Z,1.70
2019-01-18T20:06:51.474Z,1.33
2019-01-18T20:09:26.249Z,1.30
2019-01-18T20:12:03.692Z,2.47
2019-01-18T20:14:48.075Z,1.97
2019-01-18T20:17:25.568Z,1.73
2019-01-18T20:20:11.413Z,1.40
2019-01-18T20:22:52.769Z,1.57
2019-01-18T20:27:33.924Z,1.93
2019-01-18T20:31:42.144Z,1.37
2019-01-18T20:34:24.461Z,1.53
2019-01-18T20:37:00.961Z,1.70
2019-01-18T20:40:09.532Z,1.57
2019-01-18T20:42:51.642Z,1.53
2019-01-18T20:45:32.614Z,1.73
2019-01-18T20:48:17.720Z,1.93
2019-01-18T20:50:56.124Z,1.60
2019-01-18T20:53:34.324Z,1.40
2019-01-18T20:56:10.677Z,1.60
2019-01-18T20:58:49.462Z,1.67
2019-01-18T21:03:30.630Z,1.70
2019-01-18T21:06:09.669Z,1.40
2019-01-18T21:08:46.987Z,1.63
2019-01-18T21:11:21.409Z,1.93
2019-01-18T21:13:58.323Z,1.27
2019-01-18T21:18:41.383Z,2.00
2019-01-18T21:21:14.898Z,1.70
2019-01-18T21:23:54.505Z,1.60
2019-01-18T21:26:39.495Z,1.10
2019-01-18T21:29:18.482Z,1.43
2019-01-18T21:32:04.642Z,1.50
2019-01-18T21:34:39.553Z,1.80
2019-01-18T21:40:18.091Z,1.47
2019-01-18T21:43:27.533Z,1.50
2019-01-18T21:47:07.536Z,1.73
2019-01-18T21:50:23.675Z,1.37
2019-01-18T21:52:59.118Z,1.53
2019-01-18T21:55:40.606Z,1.30
2019-01-18T21:58:21.277Z,2.00
2019-01-18T22:01:13.431Z,1.57
2019-01-18T22:03:49.302Z,1.57
2019-01-18T22:06:26.316Z,1.00
2019-01-18T22:09:17.195Z,1.40
2019-01-18T22:11:55.501Z,1.53
2019-01-18T22:14:34.760Z,1.30
2019-01-18T22:17:17.412Z,1.33
2019-01-18T22:20:00.601Z,1.60
2019-01-18T22:23:40.146Z,1.20
2019-01-18T22:26:16.295Z,1.40
2019-01-18T22:28:49.054Z,1.37
2019-01-18T22:31:31.297Z,1.33
2019-01-18T22:34:07.940Z,1.40
2019-01-18T22:36:56.132Z,1.40
2019-01-18T22:39:34.786Z,1.47
2019-01-18T22:42:25.177Z,1.63
2019-01-18T22:47:14.497Z,1.43
2019-01-18T22:50:21.325Z,1.30
2019-01-18T22:53:31.856Z,1.10
2019-01-18T22:56:11.106Z,1.60
2019-01-18T22:58:51.459Z,1.27
2019-01-18T23:01:31.403Z,1.37
2019-01-18T23:04:42.453Z,1.30
2019-01-18T23:07:17.964Z,1.47
2019-01-18T23:10:13.398Z,1.07
2019-01-18T23:12:54.936Z,1.37
2019-01-18T23:15:32.277Z,1.13
2019-01-18T23:18:13.382Z,1.13
2019-01-18T23:20:52.547Z,1.33
2019-01-18T23:23:33.156Z,1.60
2019-01-18T23:26:15.340Z,1.30
2019-01-18T23:28:52.550Z,1.30
2019-01-18T23:31:26.053Z,1.27
2019-01-18T23:33:59.736Z,2.57
2019-01-18T23:36:33.972Z,1.10
2019-01-18T23:41:17.265Z,1.10
2019-01-18T23:43:52.797Z,1.30
2019-01-18T23:46:29.953Z,0.97
2019-01-18T23:49:07.783Z,1.13
2019-01-18T23:51:52.026Z,1.47
2019-01-18T23:56:32.049Z,1.30
2019-01-18T23:59:06.637Z,1.03
